sensor_id;sensor_type;location;lat;lon;timestamp;pressure;altitude;pressure_sealevel;temperature;humidity
62150;BME280;48134;53.586;10.610;2024-01-30T00:01:44;102155.19;;;1.95;100.00
62150;BME280;48134;53.586;10.610;2024-01-30T00:04:12;102153.91;;;1.91;100.00
62150;BME280;48134;53.586;10.610;2024-01-30T00:06:40;102150.94;;;2.00;100.00
62150;BME280;48134;53.586;10.610;2024-01-30T00:09:13;102157.31;;;1.99;100.00
62150;BME280;48134;53.586;10.610;2024-01-30T00:11:47;102146.38;;;2.01;100.00
62150;BME280;48134;53.586;10.610;2024-01-30T00:14:15;102151.47;;;1.96;100.00
62150;BME280;48134;53.586;10.610;2024-01-30T00:16:48;102148.03;;;2.17;100.00
62150;BME280;48134;53.586;10.610;2024-01-30T00:19:21;102138.50;;;2.14;100.00
62150;BME280;48134;53.586;10.610;2024-01-30T00:21:54;102141.53;;;2.11;100.00
62150;BME280;48134;53.586;10.610;2024-01-30T00:24:27;102147.75;;;2.12;100.00
62150;BME280;48134;53.586;10.610;2024-01-30T00:26:57;102142.81;;;2.15;100.00
62150;BME280;48134;53.586;10.610;2024-01-30T00:29:30;102142.28;;;2.20;100.00
62150;BME280;48134;53.586;10.610;2024-01-30T00:32:00;102135.53;;;2.24;100.00
62150;BME280;48134;53.586;10.610;2024-01-30T00:34:33;102134.56;;;2.32;100.00
62150;BME280;48134;53.586;10.610;2024-01-30T00:37:01;102139.06;;;2.46;100.00
62150;BME280;48134;53.586;10.610;2024-01-30T00:39:34;102130.34;;;2.44;100.00
62150;BME280;48134;53.586;10.610;2024-01-30T00:42:08;102131.75;;;2.40;100.00
62150;BME280;48134;53.586;10.610;2024-01-30T00:44:41;102130.03;;;2.32;100.00
62150;BME280;48134;53.586;10.610;2024-01-30T00:47:14;102130.66;;;2.34;100.00
62150;BME280;48134;53.586;10.610;2024-01-30T00:49:47;102130.97;;;2.25;100.00
62150;BME280;48134;53.586;10.610;2024-01-30T00:52:15;102130.88;;;2.18;100.00
62150;BME280;48134;53.586;10.610;2024-01-30T00:54:43;102131.19;;;2.08;100.00
62150;BME280;48134;53.586;10.610;2024-01-30T00:57:17;102127.56;;;2.16;100.00
62150;BME280;48134;53.586;10.610;2024-01-30T00:59:50;102120.72;;;2.13;100.00
62150;BME280;48134;53.586;10.610;2024-01-30T01:02:23;102129.50;;;2.07;100.00
62150;BME280;48134;53.586;10.610;2024-01-30T01:04:51;102120.06;;;2.11;100.00
62150;BME280;48134;53.586;10.610;2024-01-30T01:07:24;102128.06;;;2.04;100.00
62150;BME280;48134;53.586;10.610;2024-01-30T01:09:52;102116.94;;;1.93;100.00
62150;BME280;48134;53.586;10.610;2024-01-30T01:12:26;102123.41;;;1.83;100.00
62150;BME280;48134;53.586;10.610;2024-01-30T01:14:59;102124.06;;;1.70;100.00
62150;BME280;48134;53.586;10.610;2024-01-30T01:17:34;102112.50;;;1.55;100.00
62150;BME280;48134;53.586;10.610;2024-01-30T01:20:02;102122.88;;;1.58;100.00
62150;BME280;48134;53.586;10.610;2024-01-30T01:22:35;102119.63;;;1.63;100.00
62150;BME280;48134;53.586;10.610;2024-01-30T01:25:10;102122.31;;;1.48;100.00
62150;BME280;48134;53.586;10.610;2024-01-30T01:27:44;102120.25;;;1.35;100.00
62150;BME280;48134;53.586;10.610;2024-01-30T01:30:23;102121.00;;;1.29;100.00
62150;BME280;48134;53.586;10.610;2024-01-30T01:32:57;102116.00;;;1.26;100.00
62150;BME280;48134;53.586;10.610;2024-01-30T01:35:32;102120.91;;;1.37;100.00
62150;BME280;48134;53.586;10.610;2024-01-30T01:38:01;102116.56;;;1.36;100.00
62150;BME280;48134;53.586;10.610;2024-01-30T01:40:29;102121.19;;;1.42;100.00
62150;BME280;48134;53.586;10.610;2024-01-30T01:43:04;102118.59;;;1.49;100.00
62150;BME280;48134;53.586;10.610;2024-01-30T01:45:37;102120.00;;;1.75;100.00
62150;BME280;48134;53.586;10.610;2024-01-30T01:48:10;102110.00;;;1.98;100.00
62150;BME280;48134;53.586;10.610;2024-01-30T01:50:44;102117.03;;;2.36;100.00
62150;BME280;48134;53.586;10.610;2024-01-30T01:53:12;102106.28;;;2.36;100.00
62150;BME280;48134;53.586;10.610;2024-01-30T01:55:40;102110.47;;;2.38;100.00
62150;BME280;48134;53.586;10.610;2024-01-30T01:58:14;102103.13;;;2.47;100.00
62150;BME280;48134;53.586;10.610;2024-01-30T02:00:42;102103.38;;;2.52;100.00
62150;BME280;48134;53.586;10.610;2024-01-30T02:03:15;102097.09;;;2.45;100.00
62150;BME280;48134;53.586;10.610;2024-01-30T02:05:46;102103.69;;;2.43;100.00
62150;BME280;48134;53.586;10.610;2024-01-30T02:08:14;102107.34;;;2.35;100.00
62150;BME280;48134;53.586;10.610;2024-01-30T02:10:48;102103.09;;;2.26;100.00
62150;BME280;48134;53.586;10.610;2024-01-30T02:13:17;102099.84;;;2.15;100.00
62150;BME280;48134;53.586;10.610;2024-01-30T02:15:50;102096.00;;;2.03;100.00
62150;BME280;48134;53.586;10.610;2024-01-30T02:18:19;102097.31;;;1.92;100.00
62150;BME280;48134;53.586;10.610;2024-01-30T02:20:47;102102.13;;;1.82;100.00
62150;BME280;48134;53.586;10.610;2024-01-30T02:23:21;102096.41;;;1.70;100.00
62150;BME280;48134;53.586;10.610;2024-01-30T02:25:56;102098.09;;;1.56;100.00
62150;BME280;48134;53.586;10.610;2024-01-30T02:28:29;102096.13;;;1.50;100.00
62150;BME280;48134;53.586;10.610;2024-01-30T02:30:57;102103.25;;;1.43;100.00
62150;BME280;48134;53.586;10.610;2024-01-30T02:33:30;102096.78;;;1.37;100.00
62150;BME280;48134;53.586;10.610;2024-01-30T02:36:03;102097.50;;;1.31;100.00
62150;BME280;48134;53.586;10.610;2024-01-30T02:38:37;102096.09;;;1.20;100.00
62150;BME280;48134;53.586;10.610;2024-01-30T02:41:10;102087.88;;;1.22;100.00
62150;BME280;48134;53.586;10.610;2024-01-30T02:43:43;102090.91;;;1.18;100.00
62150;BME280;48134;53.586;10.610;2024-01-30T02:46:16;102081.56;;;1.14;100.00
62150;BME280;48134;53.586;10.610;2024-01-30T02:48:49;102085.34;;;1.05;100.00
62150;BME280;48134;53.586;10.610;2024-01-30T02:51:22;102081.63;;;0.91;100.00
62150;BME280;48134;53.586;10.610;2024-01-30T02:53:51;102087.75;;;1.00;100.00
62150;BME280;48134;53.586;10.610;2024-01-30T02:56:24;102086.44;;;0.96;100.00
62150;BME280;48134;53.586;10.610;2024-01-30T02:58:57;102078.31;;;1.04;100.00
62150;BME280;48134;53.586;10.610;2024-01-30T03:01:30;102084.50;;;1.05;100.00
62150;BME280;48134;53.586;10.610;2024-01-30T03:03:58;102082.00;;;1.03;100.00
62150;BME280;48134;53.586;10.610;2024-01-30T03:06:31;102076.38;;;1.13;100.00
62150;BME280;48134;53.586;10.610;2024-01-30T03:09:06;102074.38;;;1.15;100.00
62150;BME280;48134;53.586;10.610;2024-01-30T03:11:39;102066.31;;;1.15;100.00
62150;BME280;48134;53.586;10.610;2024-01-30T03:14:12;102068.91;;;1.23;100.00
62150;BME280;48134;53.586;10.610;2024-01-30T03:16:45;102079.28;;;1.26;100.00
62150;BME280;48134;53.586;10.610;2024-01-30T03:19:18;102065.03;;;1.26;100.00
62150;BME280;48134;53.586;10.610;2024-01-30T03:21:51;102064.28;;;1.32;100.00
62150;BME280;48134;53.586;10.610;2024-01-30T03:24:25;102063.72;;;1.36;100.00
62150;BME280;48134;53.586;10.610;2024-01-30T03:26:58;102057.84;;;1.41;100.00
62150;BME280;48134;53.586;10.610;2024-01-30T03:29:31;102056.44;;;1.45;100.00
62150;BME280;48134;53.586;10.610;2024-01-30T03:31:59;102051.34;;;1.50;100.00
62150;BME280;48134;53.586;10.610;2024-01-30T03:34:32;102052.47;;;1.56;100.00
62150;BME280;48134;53.586;10.610;2024-01-30T03:37:05;102054.59;;;1.61;100.00
62150;BME280;48134;53.586;10.610;2024-01-30T03:39:40;102043.47;;;1.64;100.00
62150;BME280;48134;53.586;10.610;2024-01-30T03:42:12;102042.84;;;1.62;100.00
62150;BME280;48134;53.586;10.610;2024-01-30T03:44:45;102036.81;;;1.60;100.00
62150;BME280;48134;53.586;10.610;2024-01-30T03:47:18;102049.94;;;1.55;100.00
62150;BME280;48134;53.586;10.610;2024-01-30T03:49:52;102046.16;;;1.49;100.00
62150;BME280;48134;53.586;10.610;2024-01-30T03:52:20;102038.09;;;1.49;100.00
62150;BME280;48134;53.586;10.610;2024-01-30T03:54:49;102042.28;;;1.51;100.00
62150;BME280;48134;53.586;10.610;2024-01-30T03:57:17;102027.66;;;1.54;100.00
62150;BME280;48134;53.586;10.610;2024-01-30T03:59:50;102027.28;;;1.57;100.00
62150;BME280;48134;53.586;10.610;2024-01-30T04:02:23;102026.19;;;1.51;100.00
62150;BME280;48134;53.586;10.610;2024-01-30T04:04:56;102029.25;;;1.48;100.00
62150;BME280;48134;53.586;10.610;2024-01-30T04:07:30;102026.00;;;1.53;100.00
62150;BME280;48134;53.586;10.610;2024-01-30T04:10:05;102043.19;;;1.59;100.00
62150;BME280;48134;53.586;10.610;2024-01-30T04:12:33;102038.19;;;1.70;100.00
62150;BME280;48134;53.586;10.610;2024-01-30T04:15:06;102035.63;;;1.62;100.00
62150;BME280;48134;53.586;10.610;2024-01-30T04:17:39;102046.34;;;1.62;100.00
62150;BME280;48134;53.586;10.610;2024-01-30T04:20:13;102050.22;;;1.60;100.00
62150;BME280;48134;53.586;10.610;2024-01-30T04:22:46;102042.28;;;1.51;100.00
62150;BME280;48134;53.586;10.610;2024-01-30T04:25:16;102046.81;;;1.51;100.00
62150;BME280;48134;53.586;10.610;2024-01-30T04:27:44;102048.13;;;1.55;100.00
62150;BME280;48134;53.586;10.610;2024-01-30T04:30:12;102049.22;;;1.46;100.00
62150;BME280;48134;53.586;10.610;2024-01-30T04:32:45;102051.28;;;1.44;100.00
62150;BME280;48134;53.586;10.610;2024-01-30T04:35:13;102044.41;;;1.41;100.00
62150;BME280;48134;53.586;10.610;2024-01-30T04:37:46;102051.44;;;1.42;100.00
62150;BME280;48134;53.586;10.610;2024-01-30T04:40:20;102048.41;;;1.45;100.00
62150;BME280;48134;53.586;10.610;2024-01-30T04:42:53;102047.84;;;1.50;100.00
62150;BME280;48134;53.586;10.610;2024-01-30T04:45:26;102039.31;;;1.46;100.00
62150;BME280;48134;53.586;10.610;2024-01-30T04:47:59;102040.06;;;1.55;100.00
62150;BME280;48134;53.586;10.610;2024-01-30T04:50:27;102035.91;;;1.52;100.00
62150;BME280;48134;53.586;10.610;2024-01-30T04:53:00;102031.81;;;1.57;100.00
62150;BME280;48134;53.586;10.610;2024-01-30T04:55:34;102033.94;;;1.61;100.00
62150;BME280;48134;53.586;10.610;2024-01-30T04:58:07;102032.47;;;1.59;100.00
62150;BME280;48134;53.586;10.610;2024-01-30T05:00:40;102034.59;;;1.63;100.00
62150;BME280;48134;53.586;10.610;2024-01-30T05:03:13;102040.50;;;1.59;100.00
62150;BME280;48134;53.586;10.610;2024-01-30T05:05:46;102038.56;;;1.67;100.00
62150;BME280;48134;53.586;10.610;2024-01-30T05:08:14;102038.97;;;1.64;100.00
62150;BME280;48134;53.586;10.610;2024-01-30T05:10:48;102033.94;;;1.61;100.00
62150;BME280;48134;53.586;10.610;2024-01-30T05:13:21;102035.22;;;1.65;100.00
62150;BME280;48134;53.586;10.610;2024-01-30T05:15:49;102034.13;;;1.60;100.00
62150;BME280;48134;53.586;10.610;2024-01-30T05:18:22;102037.91;;;1.50;100.00
62150;BME280;48134;53.586;10.610;2024-01-30T05:20:50;102037.47;;;1.47;100.00
62150;BME280;48134;53.586;10.610;2024-01-30T05:23:23;102046.91;;;1.43;100.00
62150;BME280;48134;53.586;10.610;2024-01-30T05:25:57;102046.72;;;1.44;100.00
62150;BME280;48134;53.586;10.610;2024-01-30T05:28:32;102041.06;;;1.39;100.00
62150;BME280;48134;53.586;10.610;2024-01-30T05:31:00;102039.59;;;1.36;100.00
62150;BME280;48134;53.586;10.610;2024-01-30T05:33:33;102043.31;;;1.35;100.00
62150;BME280;48134;53.586;10.610;2024-01-30T05:36:06;102034.59;;;1.48;100.00
62150;BME280;48134;53.586;10.610;2024-01-30T05:38:35;102016.31;;;1.52;100.00
62150;BME280;48134;53.586;10.610;2024-01-30T05:41:09;102019.81;;;1.52;100.00
62150;BME280;48134;53.586;10.610;2024-01-30T05:43:37;102017.69;;;1.48;100.00
62150;BME280;48134;53.586;10.610;2024-01-30T05:46:10;102002.50;;;1.40;100.00
62150;BME280;48134;53.586;10.610;2024-01-30T05:48:43;102006.41;;;1.38;100.00
62150;BME280;48134;53.586;10.610;2024-01-30T05:51:16;102005.47;;;1.45;100.00
62150;BME280;48134;53.586;10.610;2024-01-30T05:53:44;102003.03;;;1.50;100.00
62150;BME280;48134;53.586;10.610;2024-01-30T05:56:18;102010.69;;;1.68;100.00
62150;BME280;48134;53.586;10.610;2024-01-30T05:58:51;102013.94;;;1.64;100.00
62150;BME280;48134;53.586;10.610;2024-01-30T06:01:19;102012.56;;;1.68;100.00
62150;BME280;48134;53.586;10.610;2024-01-30T06:03:52;102010.34;;;1.72;100.00
62150;BME280;48134;53.586;10.610;2024-01-30T06:06:20;102010.16;;;1.73;100.00
62150;BME280;48134;53.586;10.610;2024-01-30T06:08:53;102000.41;;;1.87;100.00
62150;BME280;48134;53.586;10.610;2024-01-30T06:11:24;101992.16;;;1.89;100.00
62150;BME280;48134;53.586;10.610;2024-01-30T06:13:52;101995.41;;;1.84;100.00
62150;BME280;48134;53.586;10.610;2024-01-30T06:16:20;101994.66;;;1.90;100.00
62150;BME280;48134;53.586;10.610;2024-01-30T06:18:53;101993.16;;;1.87;100.00
62150;BME280;48134;53.586;10.610;2024-01-30T06:21:26;101994.44;;;1.92;100.00
62150;BME280;48134;53.586;10.610;2024-01-30T06:23:59;101995.84;;;1.87;100.00
62150;BME280;48134;53.586;10.610;2024-01-30T06:26:33;101994.22;;;1.86;100.00
62150;BME280;48134;53.586;10.610;2024-01-30T06:29:06;101993.94;;;1.81;100.00
62150;BME280;48134;53.586;10.610;2024-01-30T06:31:39;101991.69;;;1.85;100.00
62150;BME280;48134;53.586;10.610;2024-01-30T06:34:07;101980.44;;;1.75;100.00
62150;BME280;48134;53.586;10.610;2024-01-30T06:36:40;101982.31;;;1.74;100.00
62150;BME280;48134;53.586;10.610;2024-01-30T06:39:08;101981.00;;;1.70;100.00
62150;BME280;48134;53.586;10.610;2024-01-30T06:41:42;101977.69;;;1.68;100.00
62150;BME280;48134;53.586;10.610;2024-01-30T06:44:10;101985.72;;;1.68;100.00
62150;BME280;48134;53.586;10.610;2024-01-30T06:46:38;101969.91;;;1.58;100.00
62150;BME280;48134;53.586;10.610;2024-01-30T06:49:06;101982.31;;;1.59;100.00
62150;BME280;48134;53.586;10.610;2024-01-30T06:51:39;101981.31;;;1.60;100.00
62150;BME280;48134;53.586;10.610;2024-01-30T06:54:07;101974.66;;;1.56;100.00
62150;BME280;48134;53.586;10.610;2024-01-30T06:56:40;101980.19;;;1.55;100.00
62150;BME280;48134;53.586;10.610;2024-01-30T06:59:10;101973.72;;;1.49;100.00
62150;BME280;48134;53.586;10.610;2024-01-30T07:01:38;101974.94;;;1.46;100.00
62150;BME280;48134;53.586;10.610;2024-01-30T07:04:11;101988.19;;;1.48;100.00
62150;BME280;48134;53.586;10.610;2024-01-30T07:06:39;101978.66;;;1.45;100.00
62150;BME280;48134;53.586;10.610;2024-01-30T07:09:07;101984.84;;;1.46;100.00
62150;BME280;48134;53.586;10.610;2024-01-30T07:11:41;101974.88;;;1.40;100.00
62150;BME280;48134;53.586;10.610;2024-01-30T07:14:15;101975.50;;;1.42;100.00
62150;BME280;48134;53.586;10.610;2024-01-30T07:16:44;101982.25;;;1.38;100.00
62150;BME280;48134;53.586;10.610;2024-01-30T07:19:14;101981.25;;;1.39;100.00
62150;BME280;48134;53.586;10.610;2024-01-30T07:21:47;101989.09;;;1.40;100.00
62150;BME280;48134;53.586;10.610;2024-01-30T07:24:15;101994.94;;;1.44;100.00
62150;BME280;48134;53.586;10.610;2024-01-30T07:26:43;101989.00;;;1.48;100.00
62150;BME280;48134;53.586;10.610;2024-01-30T07:29:20;101991.69;;;1.48;100.00
62150;BME280;48134;53.586;10.610;2024-01-30T07:32:14;101990.66;;;1.49;100.00
62150;BME280;48134;53.586;10.610;2024-01-30T07:35:02;101987.59;;;1.67;100.00
62150;BME280;48134;53.586;10.610;2024-01-30T07:37:29;101983.03;;;1.68;100.00
62150;BME280;48134;53.586;10.610;2024-01-30T07:39:57;101985.34;;;1.71;100.00
62150;BME280;48134;53.586;10.610;2024-01-30T07:42:30;101983.75;;;1.77;100.00
62150;BME280;48134;53.586;10.610;2024-01-30T07:45:07;101979.66;;;1.81;100.00
62150;BME280;48134;53.586;10.610;2024-01-30T07:47:44;101979.94;;;1.86;100.00
62150;BME280;48134;53.586;10.610;2024-01-30T07:50:28;101980.41;;;1.90;100.00
62150;BME280;48134;53.586;10.610;2024-01-30T07:53:10;101981.09;;;1.98;100.00
62150;BME280;48134;53.586;10.610;2024-01-30T07:55:50;101983.59;;;2.00;100.00
62150;BME280;48134;53.586;10.610;2024-01-30T07:58:30;101968.84;;;2.11;100.00
62150;BME280;48134;53.586;10.610;2024-01-30T08:01:48;101967.63;;;2.13;100.00
62150;BME280;48134;53.586;10.610;2024-01-30T08:04:25;101967.69;;;2.20;100.00
62150;BME280;48134;53.586;10.610;2024-01-30T08:07:02;101968.25;;;2.15;100.00
62150;BME280;48134;53.586;10.610;2024-01-30T08:09:33;101979.25;;;2.20;100.00
62150;BME280;48134;53.586;10.610;2024-01-30T08:12:09;101976.78;;;2.19;100.00
62150;BME280;48134;53.586;10.610;2024-01-30T08:14:40;101975.75;;;2.20;100.00
62150;BME280;48134;53.586;10.610;2024-01-30T08:17:09;101980.13;;;2.21;100.00
62150;BME280;48134;53.586;10.610;2024-01-30T08:19:39;101981.56;;;2.24;100.00
62150;BME280;48134;53.586;10.610;2024-01-30T08:22:26;101977.91;;;2.31;100.00
62150;BME280;48134;53.586;10.610;2024-01-30T08:24:55;101969.03;;;2.31;100.00
62150;BME280;48134;53.586;10.610;2024-01-30T08:27:30;101979.00;;;2.37;100.00
62150;BME280;48134;53.586;10.610;2024-01-30T08:30:04;101973.22;;;2.40;100.00
62150;BME280;48134;53.586;10.610;2024-01-30T08:32:54;101970.06;;;2.51;100.00
62150;BME280;48134;53.586;10.610;2024-01-30T08:35:35;101963.06;;;2.57;100.00
62150;BME280;48134;53.586;10.610;2024-01-30T08:38:15;101964.97;;;2.63;100.00
62150;BME280;48134;53.586;10.610;2024-01-30T08:40:48;101954.59;;;2.60;100.00
62150;BME280;48134;53.586;10.610;2024-01-30T08:43:22;101967.84;;;2.62;100.00
62150;BME280;48134;53.586;10.610;2024-01-30T08:45:58;101962.06;;;2.65;100.00
62150;BME280;48134;53.586;10.610;2024-01-30T08:48:30;101959.84;;;2.68;100.00
62150;BME280;48134;53.586;10.610;2024-01-30T08:51:07;101965.47;;;2.74;100.00
62150;BME280;48134;53.586;10.610;2024-01-30T08:53:50;101951.63;;;2.77;100.00
62150;BME280;48134;53.586;10.610;2024-01-30T08:56:24;101953.28;;;2.78;100.00
62150;BME280;48134;53.586;10.610;2024-01-30T08:58:57;101961.16;;;2.79;100.00
62150;BME280;48134;53.586;10.610;2024-01-30T09:01:25;101965.69;;;2.79;100.00
62150;BME280;48134;53.586;10.610;2024-01-30T09:03:58;101952.44;;;2.77;100.00
62150;BME280;48134;53.586;10.610;2024-01-30T09:06:31;101958.25;;;2.81;100.00
62150;BME280;48134;53.586;10.610;2024-01-30T09:09:04;101961.22;;;2.86;100.00
62150;BME280;48134;53.586;10.610;2024-01-30T09:11:35;101958.88;;;2.83;100.00
62150;BME280;48134;53.586;10.610;2024-01-30T09:14:14;101965.16;;;2.90;100.00
62150;BME280;48134;53.586;10.610;2024-01-30T09:16:56;101954.22;;;2.92;100.00
62150;BME280;48134;53.586;10.610;2024-01-30T09:19:27;101952.97;;;2.94;100.00
62150;BME280;48134;53.586;10.610;2024-01-30T09:21:57;101950.97;;;3.03;100.00
62150;BME280;48134;53.586;10.610;2024-01-30T09:24:25;101945.19;;;3.06;100.00
62150;BME280;48134;53.586;10.610;2024-01-30T09:26:54;101940.66;;;3.13;100.00
62150;BME280;48134;53.586;10.610;2024-01-30T09:29:27;101942.56;;;3.19;100.00
62150;BME280;48134;53.586;10.610;2024-01-30T09:32:01;101937.59;;;3.23;100.00
62150;BME280;48134;53.586;10.610;2024-01-30T09:34:37;101924.38;;;3.28;100.00
62150;BME280;48134;53.586;10.610;2024-01-30T09:37:12;101916.31;;;3.28;100.00
62150;BME280;48134;53.586;10.610;2024-01-30T09:39:47;101919.03;;;3.35;100.00
62150;BME280;48134;53.586;10.610;2024-01-30T09:42:26;101916.56;;;3.33;100.00
62150;BME280;48134;53.586;10.610;2024-01-30T09:45:04;101924.84;;;3.38;100.00
62150;BME280;48134;53.586;10.610;2024-01-30T09:47:39;101920.09;;;3.40;100.00
62150;BME280;48134;53.586;10.610;2024-01-30T09:50:12;101922.81;;;3.47;100.00
62150;BME280;48134;53.586;10.610;2024-01-30T09:52:47;101926.56;;;3.60;100.00
62150;BME280;48134;53.586;10.610;2024-01-30T09:55:21;101919.13;;;3.62;100.00
62150;BME280;48134;53.586;10.610;2024-01-30T09:57:54;101925.16;;;3.70;100.00
62150;BME280;48134;53.586;10.610;2024-01-30T10:00:22;101919.59;;;3.79;100.00
62150;BME280;48134;53.586;10.610;2024-01-30T10:02:58;101926.63;;;3.80;100.00
62150;BME280;48134;53.586;10.610;2024-01-30T10:05:26;101939.28;;;3.86;100.00
62150;BME280;48134;53.586;10.610;2024-01-30T10:07:56;101945.91;;;3.90;100.00
62150;BME280;48134;53.586;10.610;2024-01-30T10:10:30;101949.66;;;3.96;100.00
62150;BME280;48134;53.586;10.610;2024-01-30T10:13:03;101946.13;;;4.02;100.00
62150;BME280;48134;53.586;10.610;2024-01-30T10:15:36;101937.03;;;4.09;100.00
62150;BME280;48134;53.586;10.610;2024-01-30T10:18:10;101937.06;;;4.23;100.00
62150;BME280;48134;53.586;10.610;2024-01-30T10:20:43;101935.41;;;4.35;100.00
62150;BME280;48134;53.586;10.610;2024-01-30T10:23:17;101932.72;;;4.42;100.00
62150;BME280;48134;53.586;10.610;2024-01-30T10:25:51;101931.66;;;4.56;100.00
62150;BME280;48134;53.586;10.610;2024-01-30T10:28:26;101927.50;;;4.54;100.00
62150;BME280;48134;53.586;10.610;2024-01-30T10:31:01;101923.56;;;4.63;100.00
62150;BME280;48134;53.586;10.610;2024-01-30T10:33:30;101922.94;;;4.68;100.00
62150;BME280;48134;53.586;10.610;2024-01-30T10:36:04;101915.88;;;4.73;100.00
62150;BME280;48134;53.586;10.610;2024-01-30T10:38:39;101910.06;;;4.76;100.00
62150;BME280;48134;53.586;10.610;2024-01-30T10:41:15;101915.63;;;4.82;100.00
62150;BME280;48134;53.586;10.610;2024-01-30T10:43:47;101901.94;;;4.83;100.00
62150;BME280;48134;53.586;10.610;2024-01-30T10:46:23;101902.56;;;4.92;100.00
62150;BME280;48134;53.586;10.610;2024-01-30T10:48:57;101898.19;;;4.98;100.00
62150;BME280;48134;53.586;10.610;2024-01-30T10:51:31;101897.94;;;5.06;100.00
62150;BME280;48134;53.586;10.610;2024-01-30T10:54:06;101896.47;;;5.10;100.00
62150;BME280;48134;53.586;10.610;2024-01-30T10:56:39;101898.72;;;5.20;100.00
62150;BME280;48134;53.586;10.610;2024-01-30T10:59:12;101897.47;;;5.22;100.00
62150;BME280;48134;53.586;10.610;2024-01-30T11:01:46;101899.53;;;5.27;100.00
62150;BME280;48134;53.586;10.610;2024-01-30T11:04:19;101887.44;;;5.36;100.00
62150;BME280;48134;53.586;10.610;2024-01-30T11:06:52;101894.69;;;5.36;100.00
62150;BME280;48134;53.586;10.610;2024-01-30T11:09:28;101883.72;;;5.37;100.00
62150;BME280;48134;53.586;10.610;2024-01-30T11:12:02;101873.28;;;5.41;100.00
62150;BME280;48134;53.586;10.610;2024-01-30T11:14:35;101881.13;;;5.49;100.00
62150;BME280;48134;53.586;10.610;2024-01-30T11:17:09;101886.69;;;5.61;100.00
62150;BME280;48134;53.586;10.610;2024-01-30T11:19:44;101890.84;;;5.64;100.00
62150;BME280;48134;53.586;10.610;2024-01-30T11:22:19;101887.72;;;5.60;100.00
62150;BME280;48134;53.586;10.610;2024-01-30T11:24:54;101888.50;;;5.67;100.00
62150;BME280;48134;53.586;10.610;2024-01-30T11:27:28;101887.25;;;5.70;100.00
62150;BME280;48134;53.586;10.610;2024-01-30T11:30:00;101877.44;;;5.75;100.00
62150;BME280;48134;53.586;10.610;2024-01-30T11:32:33;101883.47;;;5.77;100.00
62150;BME280;48134;53.586;10.610;2024-01-30T11:35:06;101871.34;;;5.87;100.00
62150;BME280;48134;53.586;10.610;2024-01-30T11:37:37;101880.03;;;5.95;100.00
62150;BME280;48134;53.586;10.610;2024-01-30T11:40:12;101863.19;;;6.00;100.00
62150;BME280;48134;53.586;10.610;2024-01-30T11:42:45;101858.16;;;6.04;100.00
62150;BME280;48134;53.586;10.610;2024-01-30T11:45:20;101859.75;;;6.11;100.00
62150;BME280;48134;53.586;10.610;2024-01-30T11:47:53;101860.69;;;6.24;100.00
62150;BME280;48134;53.586;10.610;2024-01-30T11:50:21;101868.97;;;6.29;100.00
62150;BME280;48134;53.586;10.610;2024-01-30T11:52:49;101864.88;;;6.45;100.00
62150;BME280;48134;53.586;10.610;2024-01-30T11:55:25;101865.03;;;6.50;100.00
62150;BME280;48134;53.586;10.610;2024-01-30T11:57:58;101860.59;;;6.56;100.00
62150;BME280;48134;53.586;10.610;2024-01-30T12:00:26;101845.44;;;6.55;100.00
62150;BME280;48134;53.586;10.610;2024-01-30T12:02:59;101837.22;;;6.61;100.00
62150;BME280;48134;53.586;10.610;2024-01-30T12:05:32;101840.53;;;6.63;100.00
62150;BME280;48134;53.586;10.610;2024-01-30T12:08:00;101835.94;;;6.64;100.00
62150;BME280;48134;53.586;10.610;2024-01-30T12:10:34;101842.44;;;6.63;100.00
62150;BME280;48134;53.586;10.610;2024-01-30T12:13:07;101839.72;;;6.63;100.00
62150;BME280;48134;53.586;10.610;2024-01-30T12:15:35;101830.78;;;6.62;100.00
62150;BME280;48134;53.586;10.610;2024-01-30T12:18:09;101837.22;;;6.61;100.00
62150;BME280;48134;53.586;10.610;2024-01-30T12:20:37;101833.19;;;6.71;100.00
62150;BME280;48134;53.586;10.610;2024-01-30T12:23:04;101840.63;;;6.75;100.00
62150;BME280;48134;53.586;10.610;2024-01-30T12:25:39;101840.41;;;6.77;100.00
62150;BME280;48134;53.586;10.610;2024-01-30T12:28:07;101844.75;;;6.78;100.00
62150;BME280;48134;53.586;10.610;2024-01-30T12:30:40;101841.38;;;6.83;100.00
62150;BME280;48134;53.586;10.610;2024-01-30T12:33:15;101843.84;;;6.84;100.00
62150;BME280;48134;53.586;10.610;2024-01-30T12:35:45;101823.56;;;6.93;100.00
62150;BME280;48134;53.586;10.610;2024-01-30T12:38:18;101825.88;;;6.90;100.00
62150;BME280;48134;53.586;10.610;2024-01-30T12:40:55;101823.56;;;6.93;100.00
62150;BME280;48134;53.586;10.610;2024-01-30T12:43:28;101814.75;;;6.98;100.00
62150;BME280;48134;53.586;10.610;2024-01-30T12:46:02;101825.72;;;7.03;100.00
62150;BME280;48134;53.586;10.610;2024-01-30T12:48:35;101825.50;;;7.05;100.00
62150;BME280;48134;53.586;10.610;2024-01-30T12:51:03;101822.63;;;7.00;100.00
62150;BME280;48134;53.586;10.610;2024-01-30T12:53:32;101817.22;;;7.00;100.00
62150;BME280;48134;53.586;10.610;2024-01-30T12:56:06;101818.75;;;6.95;100.00
62150;BME280;48134;53.586;10.610;2024-01-30T12:58:39;101822.19;;;7.03;100.00
62150;BME280;48134;53.586;10.610;2024-01-30T13:01:09;101817.47;;;6.98;100.00
62150;BME280;48134;53.586;10.610;2024-01-30T13:03:37;101817.63;;;7.03;100.00
62150;BME280;48134;53.586;10.610;2024-01-30T13:06:05;101813.50;;;7.12;100.00
62150;BME280;48134;53.586;10.610;2024-01-30T13:08:33;101815.31;;;7.19;100.00